Emerald Leader — C6WP4 — position and weather

sailwx.info

Track history (hours):
 
Tides and Currents Weather Stations Pressure Air Temp Water Temp Dewpoint Dewpoint Depression Visibility Wind Speed Wind Dir Waves Ship Positions

Emerald Leader

Last reported at 2015-Aug-02 09:30 UTC. Time now 2015-Aug-03 15:08 UTC.
Position N 36°30' W 008°60'.

Length 176 m; draft 8.3 m.

Type: Cargo ship. MMSI: 308688000.

Date/timePositionNaut miles runAvg speedWind from/ knotsBaromVisibWave heightAir tempDewpointWater temp
2015-Aug-02 09:30N 36°30' W 008°60'3015.3
2015-Aug-02 07:33N 36°46' W 009°31'1615.2
2015-Aug-02 06:29N 37°01' W 009°37'1415.0
2015-Aug-02 05:33N 37°15' W 009°40'1515.4
2015-Aug-02 04:33N 37°30' W 009°45'1615.4
2015-Aug-02 03:33N 37°45' W 009°49'1515.5
2015-Aug-02 02:33N 38°00' W 009°53'1515.4
2015-Aug-02 01:33N 38°15' W 009°58'1615.5
2015-Aug-02 00:33N 38°30' W 010°03'1515.4
2015-Aug-01 23:33N 38°45' W 010°06'1615.5
2015-Aug-01 22:33N 39°01' W 010°06'1615.7
2015-Aug-01 21:33N 39°16' W 010°03'1715.9
2015-Aug-01 20:29N 39°33' W 009°57'1615.6
2015-Aug-01 19:28N 39°48' W 009°52'1516.0
2015-Aug-01 18:33N 40°02' W 009°47'  
2015-Jul-30 02:32N 50°38' W 005°32'1514.9
2015-Jul-30 01:33N 50°47' W 005°14'9515.8
2015-Jul-29 19:33N 51°27' W 002°57'9 8.7
2015-Jul-29 18:33N 51°30' W 002°44'0 0.5
2015-Jul-29 17:32N 51°30' W 002°43'0 0.0
2015-Jul-29 16:32N 51°30' W 002°43'0 0.0
2015-Jul-29 15:32N 51°30' W 002°43'0 0.0
2015-Jul-29 14:32N 51°30' W 002°43'0 0.0
2015-Jul-29 13:32N 51°30' W 002°43'0 0.0
2015-Jul-29 12:32N 51°30' W 002°43'0 0.0
2015-Jul-29 11:29N 51°30' W 002°43'0 0.0
2015-Jul-29 10:32N 51°30' W 002°43'0 0.0
2015-Jul-29 09:32N 51°30' W 002°43'0 0.0
2015-Jul-29 08:32N 51°30' W 002°43'0 0.0
2015-Jul-29 07:32N 51°30' W 002°43'0 0.0
2015-Jul-29 06:32N 51°30' W 002°43'0 0.0
2015-Jul-29 05:32N 51°30' W 002°43'0 0.0
2015-Jul-29 04:32N 51°30' W 002°43'0 0.0
2015-Jul-29 03:32N 51°30' W 002°43'0 0.0
2015-Jul-29 02:32N 51°30' W 002°43'0 0.0
2015-Jul-29 01:32N 51°30' W 002°43'0 0.0
2015-Jul-29 00:32N 51°30' W 002°43'0 0.0
2015-Jul-28 23:32N 51°30' W 002°43'0 0.0
2015-Jul-28 22:32N 51°30' W 002°43'0 0.0
2015-Jul-28 21:32N 51°30' W 002°43'0 0.0
2015-Jul-28 20:32N 51°30' W 002°43'0 0.0
2015-Jul-28 19:32N 51°30' W 002°43'0 0.0
2015-Jul-28 18:32N 51°30' W 002°43'0 0.0
2015-Jul-28 17:29N 51°30' W 002°43'0 0.0
2015-Jul-28 16:32N 51°30' W 002°43'0 0.4
2015-Jul-28 15:33N 51°30' W 002°43'1 0.7
2015-Jul-28 14:33N 51°31' W 002°44'102 8.4
2015-Jul-28 02:27N 50°47' W 005°11'8 8.4
2015-Jul-28 01:33N 50°42' W 005°19'9 8.6
2015-Jul-28 00:33N 50°36' W 005°29'9 9.0
2015-Jul-27 23:33N 50°30' W 005°39'220 7.8
2015-Jul-26 19:25N 50°31' E 000°07'1011.8
2015-Jul-26 18:33N 50°34' E 000°22'1111.3
2015-Jul-26 17:33N 50°38' E 000°39'1111.1
2015-Jul-26 16:33N 50°45' E 000°52'1211.2
2015-Jul-26 15:30N 50°52' E 001°07'1212.3
2015-Jul-26 14:33N 51°00' E 001°20'1413.8
2015-Jul-26 13:33N 51°09' E 001°37'1313.5
2015-Jul-26 12:33N 51°19' E 001°52'1110.6
2015-Jul-26 11:33N 51°23' E 002°07'1212.1
2015-Jul-26 10:32N 51°22' E 002°27'1212.1
2015-Jul-26 09:34N 51°22' E 002°46'1211.8
2015-Jul-26 08:33N 51°24' E 003°05'7 6.8
2015-Jul-26 07:34N 51°20' E 003°13'1 1.3
2015-Jul-26 06:32N 51°19' E 003°13'0 0.0
2015-Jul-26 05:32N 51°19' E 003°13'0 0.0
2015-Jul-26 04:32N 51°19' E 003°13'0 0.0
2015-Jul-26 03:32N 51°19' E 003°13'0 0.0
2015-Jul-26 02:32N 51°19' E 003°13'0 0.0
2015-Jul-26 01:29N 51°19' E 003°13'0 0.0
2015-Jul-26 00:32N 51°19' E 003°13'0 0.0
2015-Jul-25 23:32N 51°19' E 003°13'0 0.0
2015-Jul-25 22:32N 51°19' E 003°13'0 0.0
2015-Jul-25 21:32N 51°19' E 003°13'0 0.0
2015-Jul-25 20:26N 51°19' E 003°13'0 0.0
2015-Jul-25 19:29N 51°19' E 003°13'0 0.0
2015-Jul-25 18:32N 51°19' E 003°13'0 0.0
2015-Jul-25 17:32N 51°19' E 003°13'0 0.0
2015-Jul-25 16:32N 51°19' E 003°13'0 0.0
2015-Jul-25 15:32N 51°19' E 003°13'0 0.0
2015-Jul-25 14:23N 51°19' E 003°13'0 0.0
2015-Jul-25 13:32N 51°19' E 003°13'0 0.0
2015-Jul-25 12:32N 51°19' E 003°13'0 0.0
2015-Jul-25 11:32N 51°19' E 003°13'0 0.0
2015-Jul-25 10:32N 51°19' E 003°13'0 0.0
2015-Jul-25 09:32N 51°19' E 003°13'0 0.0
2015-Jul-25 08:32N 51°19' E 003°13'0 0.0
2015-Jul-25 07:32N 51°19' E 003°13'0 0.0
2015-Jul-25 06:32N 51°19' E 003°13'0 0.0
2015-Jul-25 05:29N 51°19' E 003°13'0 0.0
2015-Jul-25 04:32N 51°19' E 003°13'0 0.0
2015-Jul-25 03:32N 51°19' E 003°13'0 0.0
2015-Jul-25 02:29N 51°19' E 003°13'0 0.0
2015-Jul-25 01:32N 51°19' E 003°13'0 0.0
2015-Jul-25 00:32N 51°19' E 003°13'0 0.0
2015-Jul-24 23:32N 51°19' E 003°13'0 0.0
2015-Jul-24 22:32N 51°19' E 003°13'0 0.0
2015-Jul-24 21:32N 51°19' E 003°13'0 0.0
2015-Jul-24 20:32N 51°19' E 003°13'0 0.0
2015-Jul-24 19:32N 51°19' E 003°13'0 0.0
2015-Jul-24 18:32N 51°19' E 003°13'0 0.0
2015-Jul-24 17:32N 51°19' E 003°13'0 0.0
2015-Jul-24 16:32N 51°19' E 003°13'0 0.0
2015-Jul-24 15:32N 51°19' E 003°13'0 0.0
2015-Jul-24 14:32N 51°19' E 003°13'0 0.0
2015-Jul-24 13:32N 51°19' E 003°13'0 0.0
2015-Jul-24 12:32N 51°19' E 003°13'1 1.0
2015-Jul-24 11:31N 51°18' E 003°14'0 0.0
2015-Jul-24 10:31N 51°18' E 003°14'0 0.0
2015-Jul-24 09:31N 51°18' E 003°14'0 0.0
2015-Jul-24 08:31N 51°18' E 003°14'0 0.0
2015-Jul-24 07:31N 51°18' E 003°14'0 0.0
2015-Jul-24 06:31N 51°18' E 003°14'0 0.0
2015-Jul-24 05:31N 51°18' E 003°14'0 0.0
2015-Jul-24 04:31N 51°18' E 003°14'0 0.0
2015-Jul-24 03:31N 51°18' E 003°14'0 0.0
2015-Jul-24 02:31N 51°18' E 003°14'0 0.0
2015-Jul-24 01:31N 51°18' E 003°14'0 0.0
2015-Jul-24 00:31N 51°18' E 003°14'0 0.0
2015-Jul-23 23:31N 51°18' E 003°14'0 0.0
2015-Jul-23 22:31N 51°18' E 003°14'0 0.0
2015-Jul-23 21:31N 51°18' E 003°14'0 0.0
2015-Jul-23 20:31N 51°18' E 003°14'0 0.0
2015-Jul-23 19:31N 51°18' E 003°14'0 0.0
2015-Jul-23 18:31N 51°18' E 003°14'0 0.0
2015-Jul-23 17:31N 51°18' E 003°14'0 0.0
2015-Jul-23 16:31N 51°18' E 003°14'0 0.0
2015-Jul-23 15:31N 51°18' E 003°14'0 0.0
2015-Jul-23 14:31N 51°18' E 003°14'0 0.0
2015-Jul-23 13:31N 51°18' E 003°14'0 0.0
2015-Jul-23 12:31N 51°18' E 003°14'0 0.0
2015-Jul-23 11:31N 51°18' E 003°14'0 0.0
2015-Jul-23 10:31N 51°18' E 003°14'0 0.0
2015-Jul-23 09:31N 51°18' E 003°14'  
Track history (hours):
 
Tides and Currents Weather Stations Pressure Air Temp Water Temp Dewpoint Dewpoint Depression Visibility Wind Speed Wind Dir Waves Ship Positions

Emerald Leader

Last reported at 2015-Aug-02 09:30 UTC. Time now 2015-Aug-03 15:08 UTC.
Position N 36°30' W 008°60'.

Length 176 m; draft 8.3 m.

Type: Cargo ship. MMSI: 308688000.

Date/timePositionNaut miles runAvg speedWind from/ knotsBaromVisibWave heightAir tempDewpointWater temp
2015-Aug-02 09:30N 36°30' W 008°60'3015.3
2015-Aug-02 07:33N 36°46' W 009°31'1615.2
2015-Aug-02 06:29N 37°01' W 009°37'1415.0
2015-Aug-02 05:33N 37°15' W 009°40'1515.4
2015-Aug-02 04:33N 37°30' W 009°45'1615.4
2015-Aug-02 03:33N 37°45' W 009°49'1515.5
2015-Aug-02 02:33N 38°00' W 009°53'1515.4
2015-Aug-02 01:33N 38°15' W 009°58'1615.5
2015-Aug-02 00:33N 38°30' W 010°03'1515.4
2015-Aug-01 23:33N 38°45' W 010°06'1615.5
2015-Aug-01 22:33N 39°01' W 010°06'1615.7
2015-Aug-01 21:33N 39°16' W 010°03'1715.9
2015-Aug-01 20:29N 39°33' W 009°57'1615.6
2015-Aug-01 19:28N 39°48' W 009°52'1516.0
2015-Aug-01 18:33N 40°02' W 009°47'  
2015-Jul-30 02:32N 50°38' W 005°32'1514.9
2015-Jul-30 01:33N 50°47' W 005°14'9515.8
2015-Jul-29 19:33N 51°27' W 002°57'9 8.7
2015-Jul-29 18:33N 51°30' W 002°44'0 0.5
2015-Jul-29 17:32N 51°30' W 002°43'0 0.0
2015-Jul-29 16:32N 51°30' W 002°43'0 0.0
2015-Jul-29 15:32N 51°30' W 002°43'0 0.0
2015-Jul-29 14:32N 51°30' W 002°43'0 0.0
2015-Jul-29 13:32N 51°30' W 002°43'0 0.0
2015-Jul-29 12:32N 51°30' W 002°43'0 0.0
2015-Jul-29 11:29N 51°30' W 002°43'0 0.0
2015-Jul-29 10:32N 51°30' W 002°43'0 0.0
2015-Jul-29 09:32N 51°30' W 002°43'0 0.0
2015-Jul-29 08:32N 51°30' W 002°43'0 0.0
2015-Jul-29 07:32N 51°30' W 002°43'0 0.0
2015-Jul-29 06:32N 51°30' W 002°43'0 0.0
2015-Jul-29 05:32N 51°30' W 002°43'0 0.0
2015-Jul-29 04:32N 51°30' W 002°43'0 0.0
2015-Jul-29 03:32N 51°30' W 002°43'0 0.0
2015-Jul-29 02:32N 51°30' W 002°43'0 0.0
2015-Jul-29 01:32N 51°30' W 002°43'0 0.0
2015-Jul-29 00:32N 51°30' W 002°43'0 0.0
2015-Jul-28 23:32N 51°30' W 002°43'0 0.0
2015-Jul-28 22:32N 51°30' W 002°43'0 0.0
2015-Jul-28 21:32N 51°30' W 002°43'0 0.0
2015-Jul-28 20:32N 51°30' W 002°43'0 0.0
2015-Jul-28 19:32N 51°30' W 002°43'0 0.0
2015-Jul-28 18:32N 51°30' W 002°43'0 0.0
2015-Jul-28 17:29N 51°30' W 002°43'0 0.0
2015-Jul-28 16:32N 51°30' W 002°43'0 0.4
2015-Jul-28 15:33N 51°30' W 002°43'1 0.7
2015-Jul-28 14:33N 51°31' W 002°44'102 8.4
2015-Jul-28 02:27N 50°47' W 005°11'8 8.4
2015-Jul-28 01:33N 50°42' W 005°19'9 8.6
2015-Jul-28 00:33N 50°36' W 005°29'9 9.0
2015-Jul-27 23:33N 50°30' W 005°39'220 7.8
2015-Jul-26 19:25N 50°31' E 000°07'1011.8
2015-Jul-26 18:33N 50°34' E 000°22'1111.3
2015-Jul-26 17:33N 50°38' E 000°39'1111.1
2015-Jul-26 16:33N 50°45' E 000°52'1211.2
2015-Jul-26 15:30N 50°52' E 001°07'1212.3
2015-Jul-26 14:33N 51°00' E 001°20'1413.8
2015-Jul-26 13:33N 51°09' E 001°37'1313.5
2015-Jul-26 12:33N 51°19' E 001°52'1110.6
2015-Jul-26 11:33N 51°23' E 002°07'1212.1
2015-Jul-26 10:32N 51°22' E 002°27'1212.1
2015-Jul-26 09:34N 51°22' E 002°46'1211.8
2015-Jul-26 08:33N 51°24' E 003°05'7 6.8
2015-Jul-26 07:34N 51°20' E 003°13'1 1.3
2015-Jul-26 06:32N 51°19' E 003°13'0 0.0
2015-Jul-26 05:32N 51°19' E 003°13'0 0.0
2015-Jul-26 04:32N 51°19' E 003°13'0 0.0
2015-Jul-26 03:32N 51°19' E 003°13'0 0.0
2015-Jul-26 02:32N 51°19' E 003°13'0 0.0
2015-Jul-26 01:29N 51°19' E 003°13'0 0.0
2015-Jul-26 00:32N 51°19' E 003°13'0 0.0
2015-Jul-25 23:32N 51°19' E 003°13'0 0.0
2015-Jul-25 22:32N 51°19' E 003°13'0 0.0
2015-Jul-25 21:32N 51°19' E 003°13'0 0.0
2015-Jul-25 20:26N 51°19' E 003°13'0 0.0
2015-Jul-25 19:29N 51°19' E 003°13'0 0.0
2015-Jul-25 18:32N 51°19' E 003°13'0 0.0
2015-Jul-25 17:32N 51°19' E 003°13'0 0.0
2015-Jul-25 16:32N 51°19' E 003°13'0 0.0
2015-Jul-25 15:32N 51°19' E 003°13'0 0.0
2015-Jul-25 14:23N 51°19' E 003°13'0 0.0
2015-Jul-25 13:32N 51°19' E 003°13'0 0.0
2015-Jul-25 12:32N 51°19' E 003°13'0 0.0
2015-Jul-25 11:32N 51°19' E 003°13'0 0.0
2015-Jul-25 10:32N 51°19' E 003°13'0 0.0
2015-Jul-25 09:32N 51°19' E 003°13'0 0.0
2015-Jul-25 08:32N 51°19' E 003°13'0 0.0
2015-Jul-25 07:32N 51°19' E 003°13'0 0.0
2015-Jul-25 06:32N 51°19' E 003°13'0 0.0
2015-Jul-25 05:29N 51°19' E 003°13'0 0.0
2015-Jul-25 04:32N 51°19' E 003°13'0 0.0
2015-Jul-25 03:32N 51°19' E 003°13'0 0.0
2015-Jul-25 02:29N 51°19' E 003°13'0 0.0
2015-Jul-25 01:32N 51°19' E 003°13'0 0.0
2015-Jul-25 00:32N 51°19' E 003°13'0 0.0
2015-Jul-24 23:32N 51°19' E 003°13'0 0.0
2015-Jul-24 22:32N 51°19' E 003°13'0 0.0
2015-Jul-24 21:32N 51°19' E 003°13'0 0.0
2015-Jul-24 20:32N 51°19' E 003°13'0 0.0
2015-Jul-24 19:32N 51°19' E 003°13'0 0.0
2015-Jul-24 18:32N 51°19' E 003°13'0 0.0
2015-Jul-24 17:32N 51°19' E 003°13'0 0.0
2015-Jul-24 16:32N 51°19' E 003°13'0 0.0
2015-Jul-24 15:32N 51°19' E 003°13'0 0.0
2015-Jul-24 14:32N 51°19' E 003°13'0 0.0
2015-Jul-24 13:32N 51°19' E 003°13'0 0.0
2015-Jul-24 12:32N 51°19' E 003°13'1 1.0
2015-Jul-24 11:31N 51°18' E 003°14'0 0.0
2015-Jul-24 10:31N 51°18' E 003°14'0 0.0
2015-Jul-24 09:31N 51°18' E 003°14'0 0.0
2015-Jul-24 08:31N 51°18' E 003°14'0 0.0
2015-Jul-24 07:31N 51°18' E 003°14'0 0.0
2015-Jul-24 06:31N 51°18' E 003°14'0 0.0
2015-Jul-24 05:31N 51°18' E 003°14'0 0.0
2015-Jul-24 04:31N 51°18' E 003°14'0 0.0
2015-Jul-24 03:31N 51°18' E 003°14'0 0.0
2015-Jul-24 02:31N 51°18' E 003°14'0 0.0
2015-Jul-24 01:31N 51°18' E 003°14'0 0.0
2015-Jul-24 00:31N 51°18' E 003°14'0 0.0
2015-Jul-23 23:31N 51°18' E 003°14'0 0.0
2015-Jul-23 22:31N 51°18' E 003°14'0 0.0
2015-Jul-23 21:31N 51°18' E 003°14'0 0.0
2015-Jul-23 20:31N 51°18' E 003°14'0 0.0
2015-Jul-23 19:31N 51°18' E 003°14'0 0.0
2015-Jul-23 18:31N 51°18' E 003°14'0 0.0
2015-Jul-23 17:31N 51°18' E 003°14'0 0.0
2015-Jul-23 16:31N 51°18' E 003°14'0 0.0
2015-Jul-23 15:31N 51°18' E 003°14'0 0.0
2015-Jul-23 14:31N 51°18' E 003°14'0 0.0
2015-Jul-23 13:31N 51°18' E 003°14'0 0.0
2015-Jul-23 12:31N 51°18' E 003°14'0 0.0
2015-Jul-23 11:31N 51°18' E 003°14'0 0.0
2015-Jul-23 10:31N 51°18' E 003°14'0 0.0
2015-Jul-23 09:31N 51°18' E 003°14'  

Dump ship's entire track history